createdAt,value
2019-04-25T00:01:31.965Z,47.14
2019-04-25T00:04:06.585Z,47.13
2019-04-25T00:06:42.567Z,47.15
2019-04-25T00:09:17.462Z,47.20
2019-04-25T00:11:53.486Z,47.25
2019-04-25T00:14:26.430Z,47.24
2019-04-25T00:16:59.241Z,47.37
2019-04-25T00:19:31.671Z,47.45
2019-04-25T00:22:12.198Z,47.48
2019-04-25T00:25:15.070Z,47.47
2019-04-25T00:27:36.974Z,47.52
2019-04-25T00:30:08.676Z,47.57
2019-04-25T00:32:42.124Z,47.71
2019-04-25T00:35:13.961Z,47.91
2019-04-25T00:37:46.186Z,48.10
2019-04-25T00:40:18.160Z,48.21
2019-04-25T00:42:50.694Z,48.42
2019-04-25T00:45:23.552Z,48.46
2019-04-25T00:47:55.417Z,48.54
2019-04-25T00:50:27.157Z,48.71
2019-04-25T00:52:58.925Z,48.88
2019-04-25T00:55:31.470Z,48.97
2019-04-25T00:58:09.225Z,49.03
2019-04-25T01:01:15.796Z,49.04
2019-04-25T01:03:49.314Z,49.01
2019-04-25T01:06:22.058Z,48.96
2019-04-25T01:08:55.795Z,49.03
2019-04-25T01:11:27.078Z,49.06
2019-04-25T01:13:58.932Z,49.20
2019-04-25T01:16:31.855Z,49.25
2019-04-25T01:19:03.742Z,49.38
2019-04-25T01:21:35.667Z,49.41
2019-04-25T01:24:07.512Z,49.44
2019-04-25T01:26:39.075Z,49.55
2019-04-25T01:29:11.431Z,49.55
2019-04-25T01:31:43.535Z,49.48
2019-04-25T01:34:16.915Z,49.55
2019-04-25T01:36:57.103Z,49.60
2019-04-25T01:39:39.384Z,49.71
2019-04-25T01:42:25.363Z,49.79
2019-04-25T01:45:00.799Z,49.88
2019-04-25T01:47:33.620Z,49.97
2019-04-25T01:50:06.731Z,50.10
2019-04-25T01:52:38.379Z,50.17
2019-04-25T01:55:10.493Z,50.22
2019-04-25T01:57:45.005Z,50.29
2019-04-25T02:00:19.997Z,50.30
2019-04-25T02:02:54.572Z,50.32
2019-04-25T02:05:26.889Z,50.31
2019-04-25T02:07:59.269Z,50.30
2019-04-25T02:10:31.525Z,50.21
2019-04-25T02:13:06.030Z,50.15
2019-04-25T02:15:38.235Z,50.03
2019-04-25T02:18:10.208Z,50.00
2019-04-25T02:20:43.532Z,49.93
2019-04-25T02:23:15.310Z,49.88
2019-04-25T02:25:46.899Z,49.86
2019-04-25T02:28:18.769Z,49.79
2019-04-25T02:30:50.382Z,49.73
2019-04-25T02:33:24.244Z,49.70
2019-04-25T02:35:59.381Z,49.67
2019-04-25T02:38:29.344Z,49.68
2019-04-25T02:41:02.808Z,49.61
2019-04-25T02:43:35.041Z,49.51
2019-04-25T02:46:38.880Z,49.50
2019-04-25T02:49:35.772Z,49.51
2019-04-25T02:52:09.712Z,49.51
2019-04-25T02:54:39.986Z,49.61
2019-04-25T02:57:11.586Z,49.69
2019-04-25T02:59:45.147Z,49.85
2019-04-25T03:02:17.081Z,50.04
2019-04-25T03:04:48.739Z,50.21
2019-04-25T03:07:20.416Z,50.35
2019-04-25T03:09:52.147Z,50.39
2019-04-25T03:12:32.416Z,50.46
2019-04-25T03:14:58.298Z,50.46
2019-04-25T03:17:30.189Z,50.36
2019-04-25T03:20:36.343Z,50.29
2019-04-25T03:23:26.880Z,50.17
2019-04-25T03:25:59.221Z,50.07
2019-04-25T03:28:31.551Z,50.06
2019-04-25T03:31:08.651Z,50.08
2019-04-25T03:33:38.394Z,50.17
2019-04-25T03:36:10.391Z,50.27
2019-04-25T03:38:42.114Z,50.34
2019-04-25T03:41:14.779Z,50.39
2019-04-25T03:43:46.742Z,50.38
2019-04-25T03:46:18.416Z,50.30
2019-04-25T03:48:50.143Z,50.25
2019-04-25T03:51:22.042Z,50.16
2019-04-25T03:53:53.905Z,50.20
2019-04-25T03:56:25.593Z,50.19
2019-04-25T03:58:57.558Z,50.28
2019-04-25T04:01:29.408Z,50.38
2019-04-25T04:04:01.155Z,50.31
2019-04-25T04:06:33.973Z,50.29
2019-04-25T04:09:07.897Z,50.29
2019-04-25T04:11:40.056Z,50.31
2019-04-25T04:14:12.956Z,50.34
2019-04-25T04:17:05.062Z,50.39
2019-04-25T04:19:45.263Z,50.36
2019-04-25T04:22:24.477Z,50.30
2019-04-25T04:24:57.721Z,50.29
2019-04-25T04:27:29.343Z,50.28
2019-04-25T04:30:01.033Z,50.25
2019-04-25T04:32:34.027Z,50.23
2019-04-25T04:35:06.544Z,50.19
2019-04-25T04:37:39.198Z,50.11
2019-04-25T04:40:11.638Z,50.11
2019-04-25T04:42:43.823Z,50.13
2019-04-25T04:45:18.268Z,50.23
2019-04-25T04:47:53.408Z,50.33
2019-04-25T04:50:25.561Z,50.36
2019-04-25T04:52:57.337Z,50.38
2019-04-25T04:55:29.740Z,50.37
2019-04-25T04:58:04.250Z,50.34
2019-04-25T05:00:36.105Z,50.29
2019-04-25T05:03:16.943Z,50.27
2019-04-25T05:06:01.155Z,50.24
2019-04-25T05:08:35.813Z,50.26
2019-04-25T05:11:07.544Z,50.30
2019-04-25T05:13:39.162Z,50.38
2019-04-25T05:16:11.187Z,50.46
2019-04-25T05:18:43.838Z,50.56
2019-04-25T05:21:17.184Z,50.59
2019-04-25T05:23:49.167Z,50.69
2019-04-25T05:26:21.071Z,50.70
2019-04-25T05:28:53.305Z,50.75
2019-04-25T05:31:32.122Z,50.71
2019-04-25T05:34:03.781Z,50.69
2019-04-25T05:36:38.616Z,50.62
2019-04-25T05:39:15.687Z,50.62
2019-04-25T05:42:01.998Z,50.54
2019-04-25T05:44:34.347Z,50.53
2019-04-25T05:47:06.215Z,50.55
2019-04-25T05:49:38.212Z,50.68
2019-04-25T05:52:09.831Z,50.80
2019-04-25T05:54:41.604Z,50.73
2019-04-25T05:57:13.835Z,50.76
2019-04-25T05:59:45.884Z,50.74
2019-04-25T06:02:24.457Z,50.69
2019-04-25T06:05:01.519Z,50.61
2019-04-25T06:07:38.178Z,50.54
2019-04-25T06:10:22.087Z,50.52
2019-04-25T06:13:28.799Z,50.45
2019-04-25T06:16:07.177Z,50.29
2019-04-25T06:19:13.572Z,50.15
2019-04-25T06:21:43.389Z,50.03
2019-04-25T06:24:36.840Z,49.92
2019-04-25T06:27:28.475Z,49.79
2019-04-25T06:30:04.418Z,50.02
2019-04-25T06:32:36.552Z,50.34
2019-04-25T06:35:08.931Z,50.51
2019-04-25T06:37:40.834Z,50.51
2019-04-25T06:40:13.705Z,50.35
2019-04-25T06:42:46.790Z,50.22
2019-04-25T06:45:39.018Z,50.05
2019-04-25T06:48:35.639Z,50.05
2019-04-25T06:51:07.674Z,49.94
2019-04-25T06:53:39.310Z,49.83
2019-04-25T06:56:10.976Z,49.38
2019-04-25T06:58:43.809Z,49.30
2019-04-25T07:01:15.817Z,49.33
2019-04-25T07:03:47.488Z,49.29
2019-04-25T07:06:19.737Z,49.10
2019-04-25T07:08:51.656Z,48.81
2019-04-25T07:11:24.873Z,48.67
2019-04-25T07:13:56.907Z,48.36
2019-04-25T07:16:29.392Z,48.35
2019-04-25T07:19:01.142Z,48.15
2019-04-25T07:21:34.465Z,48.03
2019-04-25T07:24:06.680Z,47.72
2019-04-25T07:27:06.982Z,47.10
2019-04-25T07:29:56.299Z,46.82
2019-04-25T07:32:54.411Z,46.50
2019-04-25T07:35:26.757Z,45.99
2019-04-25T07:37:58.776Z,45.96
2019-04-25T07:40:30.674Z,45.77
2019-04-25T07:43:03.195Z,45.71
2019-04-25T07:45:36.818Z,45.55
2019-04-25T07:48:08.554Z,45.45
2019-04-25T07:50:40.268Z,45.40
2019-04-25T07:53:14.217Z,45.24
2019-04-25T07:55:45.819Z,45.37
2019-04-25T07:58:17.567Z,45.29
2019-04-25T08:00:49.259Z,44.97
2019-04-25T08:03:21.530Z,44.21
2019-04-25T08:05:53.414Z,44.23
2019-04-25T08:08:25.217Z,44.20
2019-04-25T08:11:04.061Z,44.10
2019-04-25T08:13:55.206Z,44.02
2019-04-25T08:16:28.886Z,43.60
2019-04-25T08:19:03.991Z,43.84
2019-04-25T08:21:36.661Z,43.66
2019-04-25T08:24:08.681Z,43.25
2019-04-25T08:26:40.482Z,43.24
2019-04-25T08:29:13.294Z,43.26
2019-04-25T08:31:45.360Z,43.08
2019-04-25T08:34:17.266Z,42.97
2019-04-25T08:36:49.307Z,42.85
2019-04-25T08:39:21.100Z,43.03
2019-04-25T08:41:53.909Z,43.11
2019-04-25T08:44:25.966Z,43.15
2019-04-25T08:46:57.691Z,42.86
2019-04-25T08:49:49.607Z,42.64
2019-04-25T08:52:21.339Z,42.31
2019-04-25T08:54:58.529Z,41.85
2019-04-25T08:58:07.750Z,41.81
2019-04-25T09:00:59.178Z,41.70
2019-04-25T09:03:32.332Z,41.33
2019-04-25T09:06:04.485Z,41.43
2019-04-25T09:08:38.133Z,41.48
2019-04-25T09:11:10.027Z,41.37
2019-04-25T09:13:43.842Z,41.16
2019-04-25T09:16:16.377Z,40.85
2019-04-25T09:18:48.312Z,40.68
2019-04-25T09:21:19.964Z,40.11
2019-04-25T09:23:53.474Z,40.34
2019-04-25T09:26:25.045Z,40.37
2019-04-25T09:28:57.103Z,40.21
2019-04-25T09:31:28.998Z,39.92
2019-04-25T09:34:01.345Z,39.83
2019-04-25T09:36:33.646Z,39.47
2019-04-25T09:39:17.473Z,39.38
2019-04-25T09:41:49.293Z,39.46
2019-04-25T09:44:25.467Z,38.99
2019-04-25T09:46:57.250Z,39.06
2019-04-25T09:49:36.903Z,38.81
2019-04-25T09:52:13.415Z,38.84
2019-04-25T09:55:00.919Z,38.55
2019-04-25T09:57:53.117Z,38.57
2019-04-25T10:00:33.553Z,38.70
2019-04-25T10:03:05.258Z,38.33
2019-04-25T10:05:38.360Z,38.39
2019-04-25T10:08:10.177Z,38.36
2019-04-25T10:10:43.490Z,38.44
2019-04-25T10:13:15.304Z,38.42
2019-04-25T10:16:15.253Z,38.32
2019-04-25T10:18:47.629Z,38.23
2019-04-25T10:21:19.506Z,38.16
2019-04-25T10:23:53.383Z,38.10
2019-04-25T10:26:25.724Z,37.96
2019-04-25T10:28:57.511Z,37.61
2019-04-25T10:31:29.166Z,37.45
2019-04-25T10:34:00.883Z,37.37
2019-04-25T10:36:33.649Z,37.16
2019-04-25T10:39:10.779Z,37.22
2019-04-25T10:41:41.293Z,37.17
2019-04-25T10:44:14.110Z,37.12
2019-04-25T10:46:47.286Z,37.15
2019-04-25T10:49:19.167Z,37.00
2019-04-25T10:51:50.967Z,36.92
2019-04-25T10:54:22.874Z,36.77
2019-04-25T10:56:54.608Z,36.50
2019-04-25T10:59:26.302Z,36.49
2019-04-25T11:01:58.065Z,36.23
2019-04-25T11:04:48.854Z,35.94
2019-04-25T11:07:21.054Z,35.85
2019-04-25T11:09:53.966Z,35.69
2019-04-25T11:12:26.914Z,35.62
2019-04-25T11:14:58.976Z,35.41
2019-04-25T11:17:30.786Z,35.30
2019-04-25T11:20:03.596Z,35.06
2019-04-25T11:22:36.246Z,34.95
2019-04-25T11:25:08.986Z,34.81
2019-04-25T11:27:40.727Z,34.79
2019-04-25T11:30:13.923Z,34.68
2019-04-25T11:32:45.712Z,34.60
2019-04-25T11:35:17.719Z,34.03
2019-04-25T11:37:51.330Z,33.28
2019-04-25T11:40:37.470Z,32.33
2019-04-25T11:43:09.374Z,32.22
2019-04-25T11:45:41.187Z,31.70
2019-04-25T11:48:13.491Z,31.92
2019-04-25T11:50:48.991Z,31.07
2019-04-25T11:53:20.187Z,31.00
2019-04-25T11:55:53.486Z,31.39
2019-04-25T11:58:26.046Z,30.90
2019-04-25T12:00:58.112Z,30.93
2019-04-25T12:03:29.903Z,30.63
2019-04-25T12:06:01.562Z,30.03
2019-04-25T12:08:34.029Z,29.95
2019-04-25T12:11:05.978Z,30.19
2019-04-25T12:13:38.119Z,29.75
2019-04-25T12:16:09.833Z,29.97
2019-04-25T12:18:41.701Z,29.90
2019-04-25T12:21:13.697Z,29.53
2019-04-25T12:23:47.398Z,29.46
2019-04-25T12:26:19.869Z,29.43
2019-04-25T12:28:51.535Z,29.42
2019-04-25T12:31:23.804Z,29.40
2019-04-25T12:33:56.343Z,29.16
2019-04-25T12:36:29.061Z,28.78
2019-04-25T12:39:01.153Z,28.82
2019-04-25T12:41:33.338Z,28.91
2019-04-25T12:44:17.749Z,28.72
2019-04-25T12:46:50.506Z,28.53
2019-04-25T12:49:23.828Z,28.60
2019-04-25T12:51:55.548Z,28.39
2019-04-25T12:54:27.351Z,28.34
2019-04-25T12:56:59.889Z,28.45
2019-04-25T12:59:32.106Z,28.13
2019-04-25T13:02:04.583Z,28.16
2019-04-25T13:04:36.356Z,28.07
2019-04-25T13:07:09.154Z,27.80
2019-04-25T13:09:40.852Z,27.89
2019-04-25T13:12:14.468Z,27.84
2019-04-25T13:14:46.535Z,27.63
2019-04-25T13:17:19.142Z,27.29
2019-04-25T13:19:51.020Z,27.24
2019-04-25T13:22:22.956Z,27.05
2019-04-25T13:24:55.297Z,26.64
2019-04-25T13:27:36.447Z,26.84
2019-04-25T13:30:28.149Z,26.87
2019-04-25T13:33:10.379Z,26.53
2019-04-25T13:35:57.610Z,26.72
2019-04-25T13:38:29.344Z,26.60
2019-04-25T13:41:01.590Z,26.50
2019-04-25T13:43:33.408Z,26.48
2019-04-25T13:46:05.114Z,26.21
2019-04-25T13:48:37.773Z,25.69
2019-04-25T13:51:09.593Z,25.78
2019-04-25T13:53:40.481Z,25.69
2019-04-25T13:56:10.436Z,25.85
2019-04-25T13:58:42.242Z,25.40
2019-04-25T14:01:17.517Z,25.43
2019-04-25T14:03:49.263Z,25.32
2019-04-25T14:06:21.520Z,25.30
2019-04-25T14:08:53.535Z,25.44
2019-04-25T14:11:25.928Z,25.32
2019-04-25T14:13:57.728Z,24.83
2019-04-25T14:16:48.627Z,24.73
2019-04-25T14:19:48.523Z,24.48
2019-04-25T14:22:22.146Z,24.60
2019-04-25T14:24:54.219Z,24.59
2019-04-25T14:27:26.563Z,24.17
2019-04-25T14:29:58.483Z,24.10
2019-04-25T14:32:30.390Z,24.16
2019-04-25T14:35:03.414Z,24.08
2019-04-25T14:37:39.567Z,24.23
2019-04-25T14:40:09.537Z,24.22
2019-04-25T14:42:41.276Z,24.01
2019-04-25T14:45:13.410Z,24.02
2019-04-25T14:47:45.309Z,23.78
2019-04-25T14:50:16.972Z,23.80
2019-04-25T14:52:49.707Z,23.78
2019-04-25T14:55:43.297Z,23.74
2019-04-25T14:58:17.493Z,23.81
2019-04-25T15:00:50.905Z,23.86
2019-04-25T15:03:23.114Z,23.54
2019-04-25T15:05:55.767Z,23.57
2019-04-25T15:08:28.590Z,23.59
2019-04-25T15:11:00.400Z,23.56
2019-04-25T15:13:32.131Z,23.46
2019-04-25T15:16:04.943Z,23.32
2019-04-25T15:18:46.469Z,23.25
2019-04-25T15:21:10.591Z,23.05
2019-04-25T15:23:42.782Z,22.96
2019-04-25T15:26:14.827Z,22.54
2019-04-25T15:28:46.924Z,22.65
2019-04-25T15:31:18.613Z,22.80
2019-04-25T15:33:50.418Z,22.68
2019-04-25T15:36:38.728Z,22.52
2019-04-25T15:39:42.115Z,22.55
2019-04-25T15:42:36.687Z,22.50
2019-04-25T15:45:31.183Z,22.37
2019-04-25T15:48:04.399Z,22.00
2019-04-25T15:50:36.218Z,21.99
2019-04-25T15:53:07.968Z,21.86
2019-04-25T15:55:40.797Z,21.33
2019-04-25T15:58:12.579Z,21.73
2019-04-25T16:00:44.551Z,21.87
2019-04-25T16:03:16.679Z,22.58
2019-04-25T16:05:48.483Z,23.62
2019-04-25T16:08:20.182Z,24.49
2019-04-25T16:10:52.896Z,25.26
2019-04-25T16:13:24.564Z,25.70
2019-04-25T16:15:57.004Z,26.18
2019-04-25T16:18:28.776Z,26.51
2019-04-25T16:21:00.651Z,26.88
2019-04-25T16:23:32.366Z,27.16
2019-04-25T16:26:05.414Z,27.44
2019-04-25T16:28:37.120Z,27.76
2019-04-25T16:31:10.776Z,27.93
2019-04-25T16:33:42.439Z,28.20
2019-04-25T16:36:14.391Z,28.54
2019-04-25T16:38:46.098Z,28.79
2019-04-25T16:41:18.557Z,29.09
2019-04-25T16:43:54.026Z,29.35
2019-04-25T16:46:26.542Z,29.64
2019-04-25T16:48:58.199Z,29.89
2019-04-25T16:51:30.819Z,30.22
2019-04-25T16:54:02.754Z,30.61
2019-04-25T16:56:35.310Z,30.85
2019-04-25T16:59:07.020Z,31.10
2019-04-25T17:01:38.927Z,31.38
2019-04-25T17:04:10.740Z,31.71
2019-04-25T17:06:42.478Z,31.66
2019-04-25T17:09:14.498Z,31.81
2019-04-25T17:11:47.205Z,31.86
2019-04-25T17:14:40.787Z,31.94
2019-04-25T17:17:27.616Z,32.04
2019-04-25T17:20:17.187Z,32.03
2019-04-25T17:22:48.984Z,32.12
2019-04-25T17:25:20.728Z,32.21
2019-04-25T17:27:53.067Z,32.26
2019-04-25T17:30:27.299Z,32.41
2019-04-25T17:33:17.944Z,32.47
2019-04-25T17:36:00.784Z,32.62
2019-04-25T17:38:38.600Z,32.74
2019-04-25T17:41:10.167Z,32.74
2019-04-25T17:43:42.673Z,32.91
2019-04-25T17:46:16.092Z,33.07
2019-04-25T17:48:47.715Z,33.13
2019-04-25T17:51:19.368Z,33.26
2019-04-25T17:53:51.198Z,33.42
2019-04-25T17:56:22.810Z,33.57
2019-04-25T17:58:55.361Z,33.68
2019-04-25T18:01:27.518Z,33.90
2019-04-25T18:03:59.207Z,34.22
2019-04-25T18:06:31.075Z,34.37
2019-04-25T18:09:02.853Z,34.36
2019-04-25T18:11:34.793Z,34.46
2019-04-25T18:14:07.599Z,34.60
2019-04-25T18:16:43.531Z,34.77
2019-04-25T18:19:19.451Z,34.93
2019-04-25T18:21:51.212Z,35.06
2019-04-25T18:24:41.197Z,35.19
2019-04-25T18:27:19.201Z,35.38
2019-04-25T18:29:51.310Z,35.53
2019-04-25T18:32:24.751Z,35.58
2019-04-25T18:35:01.098Z,35.80
2019-04-25T18:38:10.029Z,35.88
2019-04-25T18:41:01.079Z,35.91
2019-04-25T18:43:57.561Z,35.96
2019-04-25T18:46:33.663Z,36.05
2019-04-25T18:49:05.557Z,36.13
2019-04-25T18:51:38.464Z,36.33
2019-04-25T18:54:19.387Z,36.54
2019-04-25T18:57:22.262Z,36.60
2019-04-25T19:00:00.288Z,36.70
2019-04-25T19:02:49.225Z,36.65
2019-04-25T19:05:47.198Z,36.67
2019-04-25T19:08:19.405Z,36.79
2019-04-25T19:10:51.639Z,36.74
2019-04-25T19:13:24.160Z,36.70
2019-04-25T19:15:56.041Z,36.78
2019-04-25T19:18:27.893Z,36.84
2019-04-25T19:21:00.133Z,36.86
2019-04-25T19:23:32.131Z,36.83
2019-04-25T19:26:04.077Z,36.87
2019-04-25T19:28:35.799Z,36.90
2019-04-25T19:31:07.698Z,36.88
2019-04-25T19:33:40.640Z,36.93
2019-04-25T19:36:13.527Z,37.02
2019-04-25T19:38:45.936Z,37.02
2019-04-25T19:41:33.642Z,37.08
2019-04-25T19:44:08.611Z,37.12
2019-04-25T19:46:42.870Z,37.27
2019-04-25T19:49:15.326Z,37.44
2019-04-25T19:51:48.159Z,37.47
2019-04-25T19:54:20.468Z,37.59
2019-04-25T19:57:04.928Z,37.64
2019-04-25T19:59:36.864Z,37.68
2019-04-25T20:02:15.675Z,37.80
2019-04-25T20:04:56.183Z,37.89
2019-04-25T20:07:33.020Z,37.95
2019-04-25T20:10:42.809Z,38.05
2019-04-25T20:13:15.750Z,38.13
2019-04-25T20:15:47.640Z,38.21
2019-04-25T20:18:19.828Z,38.34
2019-04-25T20:20:52.033Z,38.46
2019-04-25T20:23:25.417Z,38.53
2019-04-25T20:25:57.606Z,38.62
2019-04-25T20:28:29.559Z,38.66
2019-04-25T20:31:01.573Z,38.75
2019-04-25T20:33:33.551Z,38.85
2019-04-25T20:36:17.053Z,38.88
2019-04-25T20:38:39.217Z,39.05
2019-04-25T20:41:11.049Z,39.07
2019-04-25T20:43:42.824Z,39.16
2019-04-25T20:46:14.626Z,39.26
2019-04-25T20:48:46.875Z,39.37
2019-04-25T20:51:19.059Z,39.43
2019-04-25T20:53:51.222Z,39.47
2019-04-25T20:56:23.141Z,39.61
2019-04-25T20:58:55.603Z,39.67
2019-04-25T21:01:27.535Z,39.80
2019-04-25T21:04:13.381Z,39.97
2019-04-25T21:06:45.249Z,40.02
2019-04-25T21:09:17.387Z,40.07
2019-04-25T21:11:49.889Z,40.22
2019-04-25T21:14:27.696Z,40.30
2019-04-25T21:17:06.565Z,40.36
2019-04-25T21:19:41.772Z,40.39
2019-04-25T21:22:13.520Z,40.46
2019-04-25T21:24:45.597Z,40.54
2019-04-25T21:27:17.326Z,40.57
2019-04-25T21:29:49.253Z,40.65
2019-04-25T21:32:22.662Z,40.71
2019-04-25T21:34:55.189Z,40.77
2019-04-25T21:37:26.978Z,40.81
2019-04-25T21:40:15.604Z,40.89
2019-04-25T21:42:56.155Z,40.96
2019-04-25T21:45:28.224Z,40.94
2019-04-25T21:48:00.807Z,41.00
2019-04-25T21:50:32.845Z,41.04
2019-04-25T21:53:04.833Z,41.04
2019-04-25T21:55:37.297Z,41.06
2019-04-25T21:58:09.271Z,41.04
2019-04-25T22:01:00.165Z,40.99
2019-04-25T22:03:32.002Z,41.01
2019-04-25T22:06:05.165Z,40.92
2019-04-25T22:08:36.983Z,40.96
2019-04-25T22:11:09.036Z,41.02
2019-04-25T22:13:41.203Z,41.18
2019-04-25T22:16:13.139Z,41.25
2019-04-25T22:18:44.950Z,41.34
2019-04-25T22:21:16.998Z,41.40
2019-04-25T22:23:49.135Z,41.49
2019-04-25T22:26:21.468Z,41.58
2019-04-25T22:28:53.410Z,41.71
2019-04-25T22:32:18.607Z,41.77
2019-04-25T22:35:10.217Z,41.88
2019-04-25T22:38:09.693Z,41.89
2019-04-25T22:48:53.472Z,42.16
2019-04-25T22:51:50.308Z,42.21
2019-04-25T22:54:53.377Z,42.37
2019-04-25T22:57:50.553Z,42.45
2019-04-25T23:01:15.785Z,42.55
2019-04-25T23:05:04.379Z,42.52
2019-04-25T23:07:54.837Z,42.53
2019-04-25T23:10:56.651Z,42.57
2019-04-25T23:14:18.936Z,42.67
2019-04-25T23:20:38.393Z,42.73
2019-04-25T23:23:32.274Z,42.76
2019-04-25T23:26:52.180Z,42.87
2019-04-25T23:29:44.736Z,42.98
2019-04-25T23:32:30.572Z,43.00
2019-04-25T23:35:36.619Z,43.16
2019-04-25T23:38:19.863Z,43.33
2019-04-25T23:41:22.451Z,43.32
2019-04-25T23:44:12.830Z,43.49
2019-04-25T23:46:56.748Z,43.58
2019-04-25T23:49:42.982Z,43.70
2019-04-25T23:52:41.415Z,43.81
2019-04-25T23:56:03.489Z,43.87
2019-04-25T23:58:49.351Z,43.96
